sensor_id;sensor_type;location;lat;lon;timestamp;P1;durP1;ratioP1;P2;durP2;ratioP2
32633;SDS011;19043;51.012;5.648;2024-03-02T00:00:56;2.95;;;0.60;;
32633;SDS011;19043;51.012;5.648;2024-03-02T00:03:21;3.55;;;1.17;;
32633;SDS011;19043;51.012;5.648;2024-03-02T00:05:50;3.30;;;0.70;;
32633;SDS011;19043;51.012;5.648;2024-03-02T00:08:23;1.15;;;0.50;;
32633;SDS011;19043;51.012;5.648;2024-03-02T00:10:49;4.03;;;0.82;;
32633;SDS011;19043;51.012;5.648;2024-03-02T00:13:15;3.33;;;0.80;;
32633;SDS011;19043;51.012;5.648;2024-03-02T00:18:10;0.82;;;0.40;;
32633;SDS011;19043;51.012;5.648;2024-03-02T00:20:35;2.13;;;0.57;;
32633;SDS011;19043;51.012;5.648;2024-03-02T00:23:04;1.75;;;0.57;;
32633;SDS011;19043;51.012;5.648;2024-03-02T00:25:37;3.72;;;1.00;;
32633;SDS011;19043;51.012;5.648;2024-03-02T00:28:03;3.30;;;0.85;;
32633;SDS011;19043;51.012;5.648;2024-03-02T00:33:06;3.38;;;0.98;;
32633;SDS011;19043;51.012;5.648;2024-03-02T00:35:32;1.42;;;0.47;;
32633;SDS011;19043;51.012;5.648;2024-03-02T00:37:57;2.72;;;0.57;;
32633;SDS011;19043;51.012;5.648;2024-03-02T00:40:22;0.97;;;0.37;;
32633;SDS011;19043;51.012;5.648;2024-03-02T00:42:52;2.88;;;0.47;;
32633;SDS011;19043;51.012;5.648;2024-03-02T00:45:17;1.80;;;0.40;;
32633;SDS011;19043;51.012;5.648;2024-03-02T00:47:42;3.72;;;0.57;;
32633;SDS011;19043;51.012;5.648;2024-03-02T00:50:08;1.37;;;0.47;;
32633;SDS011;19043;51.012;5.648;2024-03-02T00:52:34;1.08;;;0.40;;
32633;SDS011;19043;51.012;5.648;2024-03-02T00:54:59;1.15;;;0.45;;
32633;SDS011;19043;51.012;5.648;2024-03-02T00:57:24;0.77;;;0.30;;
32633;SDS011;19043;51.012;5.648;2024-03-02T00:59:51;1.08;;;0.47;;
32633;SDS011;19043;51.012;5.648;2024-03-02T01:02:16;2.40;;;0.50;;
32633;SDS011;19043;51.012;5.648;2024-03-02T01:04:41;2.63;;;0.33;;
32633;SDS011;19043;51.012;5.648;2024-03-02T01:07:07;1.30;;;0.30;;
32633;SDS011;19043;51.012;5.648;2024-03-02T01:09:32;0.20;;;0.13;;
32633;SDS011;19043;51.012;5.648;2024-03-02T01:11:57;0.90;;;0.30;;
32633;SDS011;19043;51.012;5.648;2024-03-02T01:14:22;0.65;;;0.30;;
32633;SDS011;19043;51.012;5.648;2024-03-02T01:16:48;0.95;;;0.20;;
32633;SDS011;19043;51.012;5.648;2024-03-02T01:19:14;1.02;;;0.20;;
32633;SDS011;19043;51.012;5.648;2024-03-02T01:21:40;0.85;;;0.28;;
32633;SDS011;19043;51.012;5.648;2024-03-02T01:24:05;0.65;;;0.20;;
32633;SDS011;19043;51.012;5.648;2024-03-02T01:26:30;0.65;;;0.30;;
32633;SDS011;19043;51.012;5.648;2024-03-02T01:28:55;0.82;;;0.30;;
32633;SDS011;19043;51.012;5.648;2024-03-02T01:31:21;1.60;;;0.27;;
32633;SDS011;19043;51.012;5.648;2024-03-02T01:33:46;0.30;;;0.10;;
32633;SDS011;19043;51.012;5.648;2024-03-02T01:36:11;0.47;;;0.20;;
32633;SDS011;19043;51.012;5.648;2024-03-02T01:38:36;0.63;;;0.38;;
32633;SDS011;19043;51.012;5.648;2024-03-02T01:41:02;0.85;;;0.30;;
32633;SDS011;19043;51.012;5.648;2024-03-02T01:43:27;0.50;;;0.25;;
32633;SDS011;19043;51.012;5.648;2024-03-02T01:45:52;0.68;;;0.25;;
32633;SDS011;19043;51.012;5.648;2024-03-02T01:48:18;1.23;;;0.20;;
32633;SDS011;19043;51.012;5.648;2024-03-02T01:50:44;0.93;;;0.20;;
32633;SDS011;19043;51.012;5.648;2024-03-02T01:53:09;1.92;;;0.30;;
32633;SDS011;19043;51.012;5.648;2024-03-02T01:55:35;0.63;;;0.30;;
32633;SDS011;19043;51.012;5.648;2024-03-02T01:58:00;1.48;;;0.40;;
32633;SDS011;19043;51.012;5.648;2024-03-02T02:00:25;1.10;;;0.50;;
32633;SDS011;19043;51.012;5.648;2024-03-02T02:02:51;1.30;;;0.38;;
32633;SDS011;19043;51.012;5.648;2024-03-02T02:05:16;1.25;;;0.30;;
32633;SDS011;19043;51.012;5.648;2024-03-02T02:07:42;1.15;;;0.30;;
32633;SDS011;19043;51.012;5.648;2024-03-02T02:10:08;1.15;;;0.20;;
32633;SDS011;19043;51.012;5.648;2024-03-02T02:12:33;0.70;;;0.20;;
32633;SDS011;19043;51.012;5.648;2024-03-02T02:14:59;0.75;;;0.25;;
32633;SDS011;19043;51.012;5.648;2024-03-02T02:17:24;1.17;;;0.35;;
32633;SDS011;19043;51.012;5.648;2024-03-02T02:19:49;1.15;;;0.40;;
32633;SDS011;19043;51.012;5.648;2024-03-02T02:22:15;0.70;;;0.20;;
32633;SDS011;19043;51.012;5.648;2024-03-02T02:24:43;0.73;;;0.30;;
32633;SDS011;19043;51.012;5.648;2024-03-02T02:27:08;0.88;;;0.30;;
32633;SDS011;19043;51.012;5.648;2024-03-02T02:29:34;1.08;;;0.20;;
32633;SDS011;19043;51.012;5.648;2024-03-02T02:31:59;1.52;;;0.30;;
32633;SDS011;19043;51.012;5.648;2024-03-02T02:34:24;1.30;;;0.55;;
32633;SDS011;19043;51.012;5.648;2024-03-02T02:36:49;0.85;;;0.40;;
32633;SDS011;19043;51.012;5.648;2024-03-02T02:39:15;0.87;;;0.20;;
32633;SDS011;19043;51.012;5.648;2024-03-02T02:41:40;1.55;;;0.40;;
32633;SDS011;19043;51.012;5.648;2024-03-02T02:44:06;0.50;;;0.23;;
32633;SDS011;19043;51.012;5.648;2024-03-02T02:46:31;0.35;;;0.20;;
32633;SDS011;19043;51.012;5.648;2024-03-02T02:48:56;0.33;;;0.20;;
32633;SDS011;19043;51.012;5.648;2024-03-02T02:51:21;0.90;;;0.37;;
32633;SDS011;19043;51.012;5.648;2024-03-02T02:53:46;0.60;;;0.20;;
32633;SDS011;19043;51.012;5.648;2024-03-02T02:56:12;0.45;;;0.20;;
32633;SDS011;19043;51.012;5.648;2024-03-02T02:58:37;0.45;;;0.20;;
32633;SDS011;19043;51.012;5.648;2024-03-02T03:01:02;0.60;;;0.30;;
32633;SDS011;19043;51.012;5.648;2024-03-02T03:03:28;0.47;;;0.15;;
32633;SDS011;19043;51.012;5.648;2024-03-02T03:05:54;0.60;;;0.30;;
32633;SDS011;19043;51.012;5.648;2024-03-02T03:08:19;0.30;;;0.10;;
32633;SDS011;19043;51.012;5.648;2024-03-02T03:10:44;0.73;;;0.30;;
32633;SDS011;19043;51.012;5.648;2024-03-02T03:13:10;1.10;;;0.30;;
32633;SDS011;19043;51.012;5.648;2024-03-02T03:15:35;1.83;;;0.32;;
32633;SDS011;19043;51.012;5.648;2024-03-02T03:18:04;0.75;;;0.22;;
32633;SDS011;19043;51.012;5.648;2024-03-02T03:20:29;0.57;;;0.30;;
32633;SDS011;19043;51.012;5.648;2024-03-02T03:22:55;0.55;;;0.25;;
32633;SDS011;19043;51.012;5.648;2024-03-02T03:25:20;1.15;;;0.40;;
32633;SDS011;19043;51.012;5.648;2024-03-02T03:27:45;0.60;;;0.17;;
32633;SDS011;19043;51.012;5.648;2024-03-02T03:30:11;0.80;;;0.25;;
32633;SDS011;19043;51.012;5.648;2024-03-02T03:32:36;1.13;;;0.30;;
32633;SDS011;19043;51.012;5.648;2024-03-02T03:35:02;2.28;;;0.30;;
32633;SDS011;19043;51.012;5.648;2024-03-02T03:37:27;0.40;;;0.20;;
32633;SDS011;19043;51.012;5.648;2024-03-02T03:39:57;0.35;;;0.10;;
32633;SDS011;19043;51.012;5.648;2024-03-02T03:42:22;0.77;;;0.20;;
32633;SDS011;19043;51.012;5.648;2024-03-02T03:44:48;0.10;;;0.10;;
32633;SDS011;19043;51.012;5.648;2024-03-02T03:47:13;0.70;;;0.22;;
32633;SDS011;19043;51.012;5.648;2024-03-02T03:49:38;0.30;;;0.15;;
32633;SDS011;19043;51.012;5.648;2024-03-02T03:52:03;0.50;;;0.13;;
32633;SDS011;19043;51.012;5.648;2024-03-02T03:54:29;0.70;;;0.20;;
32633;SDS011;19043;51.012;5.648;2024-03-02T03:56:54;0.30;;;0.10;;
32633;SDS011;19043;51.012;5.648;2024-03-02T03:59:19;1.13;;;0.20;;
32633;SDS011;19043;51.012;5.648;2024-03-02T04:01:44;0.10;;;0.10;;
32633;SDS011;19043;51.012;5.648;2024-03-02T04:04:10;2.35;;;0.20;;
32633;SDS011;19043;51.012;5.648;2024-03-02T04:06:35;1.83;;;0.30;;
32633;SDS011;19043;51.012;5.648;2024-03-02T04:09:00;0.40;;;0.20;;
32633;SDS011;19043;51.012;5.648;2024-03-02T04:11:25;0.40;;;0.10;;
32633;SDS011;19043;51.012;5.648;2024-03-02T04:13:51;0.75;;;0.20;;
32633;SDS011;19043;51.012;5.648;2024-03-02T04:16:16;0.55;;;0.10;;
32633;SDS011;19043;51.012;5.648;2024-03-02T04:18:41;0.47;;;0.13;;
32633;SDS011;19043;51.012;5.648;2024-03-02T04:21:06;0.97;;;0.30;;
32633;SDS011;19043;51.012;5.648;2024-03-02T04:23:32;1.00;;;0.30;;
32633;SDS011;19043;51.012;5.648;2024-03-02T04:25:57;0.52;;;0.20;;
32633;SDS011;19043;51.012;5.648;2024-03-02T04:28:22;0.68;;;0.20;;
32633;SDS011;19043;51.012;5.648;2024-03-02T04:30:47;0.37;;;0.10;;
32633;SDS011;19043;51.012;5.648;2024-03-02T04:33:13;0.63;;;0.20;;
32633;SDS011;19043;51.012;5.648;2024-03-02T04:35:38;0.93;;;0.20;;
32633;SDS011;19043;51.012;5.648;2024-03-02T04:38:03;0.35;;;0.10;;
32633;SDS011;19043;51.012;5.648;2024-03-02T04:40:28;1.02;;;0.40;;
32633;SDS011;19043;51.012;5.648;2024-03-02T04:42:54;0.67;;;0.20;;
32633;SDS011;19043;51.012;5.648;2024-03-02T04:45:19;0.52;;;0.10;;
32633;SDS011;19043;51.012;5.648;2024-03-02T04:47:44;0.85;;;0.30;;
32633;SDS011;19043;51.012;5.648;2024-03-02T04:50:10;1.95;;;0.50;;
32633;SDS011;19043;51.012;5.648;2024-03-02T04:52:35;0.98;;;0.30;;
32633;SDS011;19043;51.012;5.648;2024-03-02T04:55:00;0.95;;;0.20;;
32633;SDS011;19043;51.012;5.648;2024-03-02T04:57:42;1.70;;;0.22;;
32633;SDS011;19043;51.012;5.648;2024-03-02T05:00:07;0.68;;;0.20;;
32633;SDS011;19043;51.012;5.648;2024-03-02T05:02:34;1.15;;;0.30;;
32633;SDS011;19043;51.012;5.648;2024-03-02T05:04:59;0.73;;;0.30;;
32633;SDS011;19043;51.012;5.648;2024-03-02T05:07:24;0.73;;;0.38;;
32633;SDS011;19043;51.012;5.648;2024-03-02T05:09:49;0.70;;;0.30;;
32633;SDS011;19043;51.012;5.648;2024-03-02T05:12:14;0.60;;;0.20;;
32633;SDS011;19043;51.012;5.648;2024-03-02T05:14:58;0.65;;;0.25;;
32633;SDS011;19043;51.012;5.648;2024-03-02T05:17:23;2.05;;;0.22;;
32633;SDS011;19043;51.012;5.648;2024-03-02T05:19:48;0.37;;;0.10;;
32633;SDS011;19043;51.012;5.648;2024-03-02T05:22:14;0.52;;;0.20;;
32633;SDS011;19043;51.012;5.648;2024-03-02T05:24:39;0.52;;;0.20;;
32633;SDS011;19043;51.012;5.648;2024-03-02T05:27:04;0.98;;;0.40;;
32633;SDS011;19043;51.012;5.648;2024-03-02T05:29:31;0.90;;;0.25;;
32633;SDS011;19043;51.012;5.648;2024-03-02T05:31:56;0.98;;;0.28;;
32633;SDS011;19043;51.012;5.648;2024-03-02T05:34:22;1.03;;;0.37;;
32633;SDS011;19043;51.012;5.648;2024-03-02T05:36:47;0.63;;;0.30;;
32633;SDS011;19043;51.012;5.648;2024-03-02T05:39:12;0.83;;;0.20;;
32633;SDS011;19043;51.012;5.648;2024-03-02T05:41:37;2.13;;;0.25;;
32633;SDS011;19043;51.012;5.648;2024-03-02T05:44:03;0.82;;;0.30;;
32633;SDS011;19043;51.012;5.648;2024-03-02T05:46:28;0.80;;;0.30;;
32633;SDS011;19043;51.012;5.648;2024-03-02T05:48:53;1.97;;;0.37;;
32633;SDS011;19043;51.012;5.648;2024-03-02T05:51:19;0.80;;;0.30;;
32633;SDS011;19043;51.012;5.648;2024-03-02T05:53:44;0.33;;;0.10;;
32633;SDS011;19043;51.012;5.648;2024-03-02T05:56:09;1.80;;;0.50;;
32633;SDS011;19043;51.012;5.648;2024-03-02T05:58:34;0.82;;;0.17;;
32633;SDS011;19043;51.012;5.648;2024-03-02T06:01:02;1.60;;;0.30;;
32633;SDS011;19043;51.012;5.648;2024-03-02T06:03:28;0.55;;;0.20;;
32633;SDS011;19043;51.012;5.648;2024-03-02T06:05:54;2.80;;;0.55;;
32633;SDS011;19043;51.012;5.648;2024-03-02T06:08:19;1.27;;;0.30;;
32633;SDS011;19043;51.012;5.648;2024-03-02T06:10:44;2.65;;;0.47;;
32633;SDS011;19043;51.012;5.648;2024-03-02T06:13:09;0.30;;;0.17;;
32633;SDS011;19043;51.012;5.648;2024-03-02T06:15:34;0.47;;;0.20;;
32633;SDS011;19043;51.012;5.648;2024-03-02T06:18:01;1.77;;;0.30;;
32633;SDS011;19043;51.012;5.648;2024-03-02T06:20:26;1.03;;;0.30;;
32633;SDS011;19043;51.012;5.648;2024-03-02T06:22:52;1.40;;;0.30;;
32633;SDS011;19043;51.012;5.648;2024-03-02T06:25:17;3.45;;;0.57;;
32633;SDS011;19043;51.012;5.648;2024-03-02T06:27:42;1.90;;;0.30;;
32633;SDS011;19043;51.012;5.648;2024-03-02T06:30:07;0.95;;;0.30;;
32633;SDS011;19043;51.012;5.648;2024-03-02T06:32:33;1.17;;;0.30;;
32633;SDS011;19043;51.012;5.648;2024-03-02T06:34:58;1.63;;;0.45;;
32633;SDS011;19043;51.012;5.648;2024-03-02T06:37:24;0.82;;;0.30;;
32633;SDS011;19043;51.012;5.648;2024-03-02T06:39:50;1.85;;;0.35;;
32633;SDS011;19043;51.012;5.648;2024-03-02T06:42:15;1.07;;;0.30;;
32633;SDS011;19043;51.012;5.648;2024-03-02T06:44:40;2.63;;;0.27;;
32633;SDS011;19043;51.012;5.648;2024-03-02T06:47:05;6.60;;;1.07;;
32633;SDS011;19043;51.012;5.648;2024-03-02T06:49:30;1.40;;;0.40;;
32633;SDS011;19043;51.012;5.648;2024-03-02T06:51:56;2.40;;;0.40;;
32633;SDS011;19043;51.012;5.648;2024-03-02T06:54:21;0.68;;;0.30;;
32633;SDS011;19043;51.012;5.648;2024-03-02T06:56:46;1.27;;;0.47;;
32633;SDS011;19043;51.012;5.648;2024-03-02T06:59:12;1.77;;;0.40;;
32633;SDS011;19043;51.012;5.648;2024-03-02T07:01:37;1.10;;;0.30;;
32633;SDS011;19043;51.012;5.648;2024-03-02T07:04:02;0.80;;;0.40;;
32633;SDS011;19043;51.012;5.648;2024-03-02T07:06:27;2.83;;;0.47;;
32633;SDS011;19043;51.012;5.648;2024-03-02T07:08:53;0.80;;;0.30;;
32633;SDS011;19043;51.012;5.648;2024-03-02T07:11:18;4.50;;;0.70;;
32633;SDS011;19043;51.012;5.648;2024-03-02T07:13:43;2.08;;;0.57;;
32633;SDS011;19043;51.012;5.648;2024-03-02T07:16:08;1.98;;;0.30;;
32633;SDS011;19043;51.012;5.648;2024-03-02T07:18:46;2.95;;;0.60;;
32633;SDS011;19043;51.012;5.648;2024-03-02T07:21:16;1.90;;;0.25;;
32633;SDS011;19043;51.012;5.648;2024-03-02T07:23:41;1.10;;;0.40;;
32633;SDS011;19043;51.012;5.648;2024-03-02T07:26:07;1.02;;;0.20;;
32633;SDS011;19043;51.012;5.648;2024-03-02T07:28:32;2.03;;;0.40;;
32633;SDS011;19043;51.012;5.648;2024-03-02T07:30:58;1.20;;;0.32;;
32633;SDS011;19043;51.012;5.648;2024-03-02T07:33:24;2.50;;;0.57;;
32633;SDS011;19043;51.012;5.648;2024-03-02T07:35:49;1.70;;;0.60;;
32633;SDS011;19043;51.012;5.648;2024-03-02T07:38:14;1.75;;;0.38;;
32633;SDS011;19043;51.012;5.648;2024-03-02T07:40:39;3.78;;;0.75;;
32633;SDS011;19043;51.012;5.648;2024-03-02T07:43:05;3.40;;;0.60;;
32633;SDS011;19043;51.012;5.648;2024-03-02T07:45:30;5.65;;;0.40;;
32633;SDS011;19043;51.012;5.648;2024-03-02T07:47:56;6.00;;;0.55;;
32633;SDS011;19043;51.012;5.648;2024-03-02T07:50:21;5.00;;;0.73;;
32633;SDS011;19043;51.012;5.648;2024-03-02T07:52:46;2.83;;;0.60;;
32633;SDS011;19043;51.012;5.648;2024-03-02T07:55:11;2.75;;;0.43;;
32633;SDS011;19043;51.012;5.648;2024-03-02T07:57:37;0.88;;;0.35;;
32633;SDS011;19043;51.012;5.648;2024-03-02T08:00:02;1.95;;;0.50;;
32633;SDS011;19043;51.012;5.648;2024-03-02T08:02:27;3.40;;;0.50;;
32633;SDS011;19043;51.012;5.648;2024-03-02T08:04:53;2.78;;;0.50;;
32633;SDS011;19043;51.012;5.648;2024-03-02T08:07:18;3.78;;;0.50;;
32633;SDS011;19043;51.012;5.648;2024-03-02T08:09:43;1.45;;;0.43;;
32633;SDS011;19043;51.012;5.648;2024-03-02T08:12:08;1.53;;;0.47;;
32633;SDS011;19043;51.012;5.648;2024-03-02T08:14:34;4.85;;;0.85;;
32633;SDS011;19043;51.012;5.648;2024-03-02T08:16:59;2.70;;;0.70;;
32633;SDS011;19043;51.012;5.648;2024-03-02T08:19:26;2.95;;;0.60;;
32633;SDS011;19043;51.012;5.648;2024-03-02T08:21:51;2.17;;;0.52;;
32633;SDS011;19043;51.012;5.648;2024-03-02T08:24:17;2.33;;;0.57;;
32633;SDS011;19043;51.012;5.648;2024-03-02T08:26:42;5.30;;;0.50;;
32633;SDS011;19043;51.012;5.648;2024-03-02T08:29:07;1.98;;;0.50;;
32633;SDS011;19043;51.012;5.648;2024-03-02T08:31:32;1.93;;;0.50;;
32633;SDS011;19043;51.012;5.648;2024-03-02T08:33:58;1.67;;;0.68;;
32633;SDS011;19043;51.012;5.648;2024-03-02T08:36:24;1.38;;;0.45;;
32633;SDS011;19043;51.012;5.648;2024-03-02T08:38:49;1.80;;;0.52;;
32633;SDS011;19043;51.012;5.648;2024-03-02T08:41:15;1.77;;;0.52;;
32633;SDS011;19043;51.012;5.648;2024-03-02T08:43:41;1.50;;;0.40;;
32633;SDS011;19043;51.012;5.648;2024-03-02T08:46:06;5.30;;;0.70;;
32633;SDS011;19043;51.012;5.648;2024-03-02T08:48:32;2.13;;;0.43;;
32633;SDS011;19043;51.012;5.648;2024-03-02T08:50:57;3.43;;;0.50;;
32633;SDS011;19043;51.012;5.648;2024-03-02T08:53:22;2.73;;;1.07;;
32633;SDS011;19043;51.012;5.648;2024-03-02T08:55:47;2.25;;;0.60;;
32633;SDS011;19043;51.012;5.648;2024-03-02T08:58:13;4.63;;;0.77;;
32633;SDS011;19043;51.012;5.648;2024-03-02T09:00:39;4.90;;;1.00;;
32633;SDS011;19043;51.012;5.648;2024-03-02T09:03:04;2.42;;;0.60;;
32633;SDS011;19043;51.012;5.648;2024-03-02T09:05:29;2.00;;;0.68;;
32633;SDS011;19043;51.012;5.648;2024-03-02T09:07:54;2.57;;;0.80;;
32633;SDS011;19043;51.012;5.648;2024-03-02T09:10:20;1.77;;;0.50;;
32633;SDS011;19043;51.012;5.648;2024-03-02T09:12:45;2.70;;;0.40;;
32633;SDS011;19043;51.012;5.648;2024-03-02T09:15:11;1.70;;;0.55;;
32633;SDS011;19043;51.012;5.648;2024-03-02T09:17:36;1.25;;;0.32;;
32633;SDS011;19043;51.012;5.648;2024-03-02T09:20:01;1.55;;;0.43;;
32633;SDS011;19043;51.012;5.648;2024-03-02T09:22:32;4.28;;;0.80;;
32633;SDS011;19043;51.012;5.648;2024-03-02T09:25:03;1.40;;;0.52;;
32633;SDS011;19043;51.012;5.648;2024-03-02T09:27:32;2.17;;;0.65;;
32633;SDS011;19043;51.012;5.648;2024-03-02T09:29:57;5.07;;;0.50;;
32633;SDS011;19043;51.012;5.648;2024-03-02T09:32:22;2.08;;;0.70;;
32633;SDS011;19043;51.012;5.648;2024-03-02T09:34:48;2.13;;;0.93;;
32633;SDS011;19043;51.012;5.648;2024-03-02T09:37:13;3.88;;;0.77;;
32633;SDS011;19043;51.012;5.648;2024-03-02T09:39:39;2.72;;;0.52;;
32633;SDS011;19043;51.012;5.648;2024-03-02T09:42:04;1.70;;;0.60;;
32633;SDS011;19043;51.012;5.648;2024-03-02T09:44:30;3.40;;;0.55;;
32633;SDS011;19043;51.012;5.648;2024-03-02T09:46:56;2.50;;;0.68;;
32633;SDS011;19043;51.012;5.648;2024-03-02T09:49:21;2.38;;;0.70;;
32633;SDS011;19043;51.012;5.648;2024-03-02T09:51:47;3.00;;;1.05;;
32633;SDS011;19043;51.012;5.648;2024-03-02T09:54:13;0.65;;;0.20;;
32633;SDS011;19043;51.012;5.648;2024-03-02T09:56:38;1.98;;;0.45;;
32633;SDS011;19043;51.012;5.648;2024-03-02T09:59:03;1.73;;;0.50;;
32633;SDS011;19043;51.012;5.648;2024-03-02T10:01:30;2.10;;;0.57;;
32633;SDS011;19043;51.012;5.648;2024-03-02T10:03:55;1.65;;;0.50;;
32633;SDS011;19043;51.012;5.648;2024-03-02T10:06:24;5.55;;;0.77;;
32633;SDS011;19043;51.012;5.648;2024-03-02T10:08:50;2.42;;;0.40;;
32633;SDS011;19043;51.012;5.648;2024-03-02T10:11:31;4.28;;;0.52;;
32633;SDS011;19043;51.012;5.648;2024-03-02T10:14:07;3.05;;;0.70;;
32633;SDS011;19043;51.012;5.648;2024-03-02T10:16:42;5.90;;;0.65;;
32633;SDS011;19043;51.012;5.648;2024-03-02T10:19:17;3.08;;;0.68;;
32633;SDS011;19043;51.012;5.648;2024-03-02T10:21:47;3.83;;;0.70;;
32633;SDS011;19043;51.012;5.648;2024-03-02T10:24:12;3.25;;;0.80;;
32633;SDS011;19043;51.012;5.648;2024-03-02T10:26:38;1.75;;;0.50;;
32633;SDS011;19043;51.012;5.648;2024-03-02T10:29:03;1.73;;;0.60;;
32633;SDS011;19043;51.012;5.648;2024-03-02T10:31:28;4.10;;;0.93;;
32633;SDS011;19043;51.012;5.648;2024-03-02T10:33:54;3.17;;;1.15;;
32633;SDS011;19043;51.012;5.648;2024-03-02T10:36:19;2.08;;;0.80;;
32633;SDS011;19043;51.012;5.648;2024-03-02T10:38:45;1.90;;;0.40;;
32633;SDS011;19043;51.012;5.648;2024-03-02T10:41:12;2.75;;;0.82;;
32633;SDS011;19043;51.012;5.648;2024-03-02T10:43:41;3.25;;;0.80;;
32633;SDS011;19043;51.012;5.648;2024-03-02T10:46:07;3.17;;;0.73;;
32633;SDS011;19043;51.012;5.648;2024-03-02T10:48:32;4.22;;;0.77;;
32633;SDS011;19043;51.012;5.648;2024-03-02T10:50:59;3.35;;;0.82;;
32633;SDS011;19043;51.012;5.648;2024-03-02T10:53:26;5.85;;;0.85;;
32633;SDS011;19043;51.012;5.648;2024-03-02T10:55:52;3.90;;;0.68;;
32633;SDS011;19043;51.012;5.648;2024-03-02T10:58:20;4.65;;;1.13;;
32633;SDS011;19043;51.012;5.648;2024-03-02T11:00:45;2.65;;;0.82;;
32633;SDS011;19043;51.012;5.648;2024-03-02T11:03:10;3.40;;;0.95;;
32633;SDS011;19043;51.012;5.648;2024-03-02T11:05:38;3.58;;;0.70;;
32633;SDS011;19043;51.012;5.648;2024-03-02T11:08:07;4.97;;;1.02;;
32633;SDS011;19043;51.012;5.648;2024-03-02T11:10:34;3.58;;;0.70;;
32633;SDS011;19043;51.012;5.648;2024-03-02T11:13:00;3.33;;;0.80;;
32633;SDS011;19043;51.012;5.648;2024-03-02T11:15:27;3.30;;;0.95;;
32633;SDS011;19043;51.012;5.648;2024-03-02T11:17:52;3.70;;;1.30;;
32633;SDS011;19043;51.012;5.648;2024-03-02T11:20:18;4.35;;;1.60;;
32633;SDS011;19043;51.012;5.648;2024-03-02T11:22:44;2.30;;;1.05;;
32633;SDS011;19043;51.012;5.648;2024-03-02T11:25:22;2.92;;;0.93;;
32633;SDS011;19043;51.012;5.648;2024-03-02T11:33:00;2.60;;;0.80;;
32633;SDS011;19043;51.012;5.648;2024-03-02T11:35:31;4.40;;;0.88;;
32633;SDS011;19043;51.012;5.648;2024-03-02T11:37:56;1.90;;;0.65;;
32633;SDS011;19043;51.012;5.648;2024-03-02T11:40:27;3.78;;;0.80;;
32633;SDS011;19043;51.012;5.648;2024-03-02T11:42:53;2.80;;;0.90;;
32633;SDS011;19043;51.012;5.648;2024-03-02T11:45:27;2.50;;;0.50;;
32633;SDS011;19043;51.012;5.648;2024-03-02T11:47:56;3.05;;;0.80;;
32633;SDS011;19043;51.012;5.648;2024-03-02T11:50:29;3.83;;;0.55;;
32633;SDS011;19043;51.012;5.648;2024-03-02T11:52:55;1.65;;;0.57;;
32633;SDS011;19043;51.012;5.648;2024-03-02T11:55:21;4.75;;;0.68;;
32633;SDS011;19043;51.012;5.648;2024-03-02T11:57:46;4.68;;;0.80;;
32633;SDS011;19043;51.012;5.648;2024-03-02T12:00:17;2.30;;;0.65;;
32633;SDS011;19043;51.012;5.648;2024-03-02T12:02:43;2.55;;;0.82;;
32633;SDS011;19043;51.012;5.648;2024-03-02T12:05:12;2.30;;;0.50;;
32633;SDS011;19043;51.012;5.648;2024-03-02T12:07:38;2.90;;;0.85;;
32633;SDS011;19043;51.012;5.648;2024-03-02T12:10:03;3.28;;;0.82;;
32633;SDS011;19043;51.012;5.648;2024-03-02T12:12:28;4.75;;;0.75;;
32633;SDS011;19043;51.012;5.648;2024-03-02T12:14:54;1.83;;;0.70;;
32633;SDS011;19043;51.012;5.648;2024-03-02T12:17:20;4.53;;;0.82;;
32633;SDS011;19043;51.012;5.648;2024-03-02T12:19:46;3.75;;;0.88;;
32633;SDS011;19043;51.012;5.648;2024-03-02T12:22:11;2.05;;;0.65;;
32633;SDS011;19043;51.012;5.648;2024-03-02T12:24:37;2.90;;;0.65;;
32633;SDS011;19043;51.012;5.648;2024-03-02T12:27:03;2.83;;;0.98;;
32633;SDS011;19043;51.012;5.648;2024-03-02T12:29:29;2.53;;;0.40;;
32633;SDS011;19043;51.012;5.648;2024-03-02T12:31:54;4.95;;;1.10;;
32633;SDS011;19043;51.012;5.648;2024-03-02T12:34:20;2.40;;;0.73;;
32633;SDS011;19043;51.012;5.648;2024-03-02T12:36:46;2.45;;;0.80;;
32633;SDS011;19043;51.012;5.648;2024-03-02T12:39:14;2.63;;;0.70;;
32633;SDS011;19043;51.012;5.648;2024-03-02T12:41:40;3.78;;;0.65;;
32633;SDS011;19043;51.012;5.648;2024-03-02T12:44:06;4.55;;;0.73;;
32633;SDS011;19043;51.012;5.648;2024-03-02T12:46:31;3.00;;;0.67;;
32633;SDS011;19043;51.012;5.648;2024-03-02T12:48:57;3.22;;;0.65;;
32633;SDS011;19043;51.012;5.648;2024-03-02T12:51:22;2.10;;;0.77;;
32633;SDS011;19043;51.012;5.648;2024-03-02T12:53:57;3.65;;;1.27;;
32633;SDS011;19043;51.012;5.648;2024-03-02T12:56:22;3.63;;;0.80;;
32633;SDS011;19043;51.012;5.648;2024-03-02T12:58:52;4.30;;;0.80;;
32633;SDS011;19043;51.012;5.648;2024-03-02T13:01:17;1.73;;;0.60;;
32633;SDS011;19043;51.012;5.648;2024-03-02T13:03:44;1.52;;;0.50;;
32633;SDS011;19043;51.012;5.648;2024-03-02T13:06:09;3.05;;;0.57;;
32633;SDS011;19043;51.012;5.648;2024-03-02T13:08:34;2.28;;;0.73;;
32633;SDS011;19043;51.012;5.648;2024-03-02T13:11:00;2.28;;;0.80;;
32633;SDS011;19043;51.012;5.648;2024-03-02T13:13:25;1.73;;;0.35;;
32633;SDS011;19043;51.012;5.648;2024-03-02T13:15:54;1.63;;;0.50;;
32633;SDS011;19043;51.012;5.648;2024-03-02T13:18:20;2.47;;;0.70;;
32633;SDS011;19043;51.012;5.648;2024-03-02T13:20:46;1.77;;;0.50;;
32633;SDS011;19043;51.012;5.648;2024-03-02T13:23:11;2.87;;;0.77;;
32633;SDS011;19043;51.012;5.648;2024-03-02T13:25:36;1.90;;;0.70;;
32633;SDS011;19043;51.012;5.648;2024-03-02T13:28:02;1.70;;;0.33;;
32633;SDS011;19043;51.012;5.648;2024-03-02T13:30:28;1.02;;;0.40;;
32633;SDS011;19043;51.012;5.648;2024-03-02T13:32:53;2.15;;;0.60;;
32633;SDS011;19043;51.012;5.648;2024-03-02T13:35:18;2.33;;;0.65;;
32633;SDS011;19043;51.012;5.648;2024-03-02T13:37:44;2.83;;;0.60;;
32633;SDS011;19043;51.012;5.648;2024-03-02T13:40:09;1.80;;;0.60;;
32633;SDS011;19043;51.012;5.648;2024-03-02T13:42:39;2.85;;;0.47;;
32633;SDS011;19043;51.012;5.648;2024-03-02T13:45:04;1.65;;;0.45;;
32633;SDS011;19043;51.012;5.648;2024-03-02T13:47:30;2.28;;;0.57;;
32633;SDS011;19043;51.012;5.648;2024-03-02T13:49:56;1.97;;;0.50;;
32633;SDS011;19043;51.012;5.648;2024-03-02T13:52:21;1.80;;;0.50;;
32633;SDS011;19043;51.012;5.648;2024-03-02T13:54:47;2.15;;;0.45;;
32633;SDS011;19043;51.012;5.648;2024-03-02T13:57:12;1.70;;;0.52;;
32633;SDS011;19043;51.012;5.648;2024-03-02T13:59:38;1.35;;;0.40;;
32633;SDS011;19043;51.012;5.648;2024-03-02T14:02:03;1.40;;;0.30;;
32633;SDS011;19043;51.012;5.648;2024-03-02T14:04:30;1.27;;;0.45;;
32633;SDS011;19043;51.012;5.648;2024-03-02T14:06:56;1.30;;;0.30;;
32633;SDS011;19043;51.012;5.648;2024-03-02T14:09:21;1.97;;;0.50;;
32633;SDS011;19043;51.012;5.648;2024-03-02T14:11:46;3.08;;;1.08;;
32633;SDS011;19043;51.012;5.648;2024-03-02T14:14:12;1.53;;;0.27;;
32633;SDS011;19043;51.012;5.648;2024-03-02T14:16:37;1.45;;;0.50;;
32633;SDS011;19043;51.012;5.648;2024-03-02T14:19:02;2.77;;;0.60;;
32633;SDS011;19043;51.012;5.648;2024-03-02T14:21:29;1.83;;;0.73;;
32633;SDS011;19043;51.012;5.648;2024-03-02T14:23:54;1.20;;;0.43;;
32633;SDS011;19043;51.012;5.648;2024-03-02T14:26:20;2.90;;;0.73;;
32633;SDS011;19043;51.012;5.648;2024-03-02T14:28:45;1.73;;;0.73;;
32633;SDS011;19043;51.012;5.648;2024-03-02T14:31:10;2.47;;;0.60;;
32633;SDS011;19043;51.012;5.648;2024-03-02T14:33:36;1.60;;;0.70;;
32633;SDS011;19043;51.012;5.648;2024-03-02T14:36:01;2.55;;;0.50;;
32633;SDS011;19043;51.012;5.648;2024-03-02T14:38:26;1.48;;;0.50;;
32633;SDS011;19043;51.012;5.648;2024-03-02T14:40:52;1.35;;;0.50;;
32633;SDS011;19043;51.012;5.648;2024-03-02T14:43:17;1.38;;;0.50;;
32633;SDS011;19043;51.012;5.648;2024-03-02T14:45:42;2.23;;;0.70;;
32633;SDS011;19043;51.012;5.648;2024-03-02T14:48:08;5.18;;;0.60;;
32633;SDS011;19043;51.012;5.648;2024-03-02T14:50:33;1.33;;;0.40;;